Main page
METAR-TAF:

METAR-TAF

Airports :

Macau International Airport

Macau, China

latitude: 22-10N, longitude: 113-34E, elevation: 114 m

Current weather observation

The report was made 31 minutes ago, at 23:30 UTC
Wind 16 kt from the North
Temperature 12°C
Humidity 88%
Pressure 1022 hPa
Visibility 10 km or more
Few clouds at a height of 1200 ft
Scattered clouds at a height of 2000 ft

METAR: VMMC 242330Z 36016KT 9999 FEW012 SCT020 12/10 Q1022 NOSIG

Time: 08:01 (00:01 UTC)

Forecast

The report was made 1 hour and 1 minutes ago, at 23:00 UTC
Forecast valid from 25 at 00 UTC to 26 at 06 UTC
Wind 15 kt from the North
Visibility 10 km or more
Few clouds at a height of 1500 ft
Scattered clouds at a height of 3000 ft

TAF: VMMC 242300Z 2500/2606 36015KT 9999 FEW015 SCT030

Weather observations and forecasts of more than 4000 airports (METAR and TAF reports).

The available stations are represented by yellow and red dots on the map.

Hover mouse over dot to see the name of the station.

Then click to see weather observations and forecasts.

To change the map : click on the green buttons with a black cross to zoom in, on the green button with a dash to zoom out, or on the green arrows for adjacent maps.


METAR-TAF: